Time;durP1;ratioP1;P1;durP2;ratioP2;P2;SDS_P1;SDS_P2;PMS_P1;PMS_P2;Temp;Humidity;BMP_temperature;BMP_pressure;BME280_temperature;BME280_humidity;BME280_pressure;Samples;Min_cycle;Max_cycle;Signal;HPM_P1;HPM_P2
2022/05/01 00:00:57;;;;;;;;;;;;;;;;;;5042990;28;1266;-78
2022/05/01 00:03:31;;;;;;;;;;;;;;;;;;5045003;28;1363;-78
2022/05/01 00:06:00;;;;;;;;;;;;;;;;;;5043393;28;1233;-78
2022/05/01 00:08:26;;;;;;;;;;;;;;;;;;5040294;28;1140;-77
2022/05/01 00:10:51;;;;;;;;;;;;;;;;;;5026909;28;1141;-77
2022/05/01 00:13:17;;;;;;;;;;;;;;;;;;5034303;28;1902;-78
2022/05/01 00:15:42;;;;;;;;;;;;;;;;;;5007363;28;1277;-77
2022/05/01 00:18:10;;;;;;;;;;;;;;;;;;5018994;28;1245;-77
2022/05/01 00:20:35;;;;;;;;;;;;;;;;;;5042093;28;1162;-78
2022/05/01 00:23:02;;;;;;;;;;;;;;;;;;5044943;28;1208;-76
2022/05/01 00:25:27;;;;;;;;;;;;;;;;;;5025859;28;1306;-78
2022/05/01 00:27:53;;;;;;;;;;;;;;;;;;5013526;28;1215;-77
2022/05/01 00:30:18;;;;;;;;;;;;;;;;;;5019074;28;1278;-77
2022/05/01 00:38:11;;;;;;;;;;;;;;;;;;5025227;28;1001;-78
2022/05/01 00:40:37;;;;;;;;;;;;;;;;;;5023157;28;1203;-77
2022/05/01 00:43:03;;;;;;;;;;;;;;;;;;5016844;28;1181;-77
2022/05/01 00:45:29;;;;;;;;;;;;;;;;;;5033396;28;1183;-77
2022/05/01 00:47:54;;;;;;;;;;;;;;;;;;5030381;28;1098;-77
2022/05/01 00:50:20;;;;;;;;;;;;;;;;;;5037448;28;1215;-77
2022/05/01 00:52:46;;;;;;;;;;;;;;;;;;5014581;28;1278;-77
2022/05/01 00:55:15;;;;;;;;;;;;;;;;;;5042791;28;1890;-77
2022/05/01 00:57:40;;;;;;;;;;;;;;;;;;5043208;28;1168;-77
2022/05/01 01:00:06;;;;;;;;;;;;;;;;;;5042860;28;1070;-78
2022/05/01 01:02:31;;;;;;;;;;;;;;;;;;5032553;28;1219;-78
2022/05/01 01:04:57;;;;;;;;;;;;;;;;;;5020718;28;1278;-78
2022/05/01 01:07:25;;;;;;;;;;;;;;;;;;5042773;28;1196;-78
2022/05/01 01:09:50;;;;;;;;;;;;;;;;;;5041206;28;1519;-76
2022/05/01 01:15:09;;;;;;;;;;;;;;;;;;5041465;28;1874;-78
2022/05/01 01:17:40;;;;;;;;;;;;;;;;;;5036191;28;1293;-78
2022/05/01 01:20:18;;;;;;;;;;;;;;;;;;5025978;28;1317;-78
2022/05/01 01:22:44;;;;;;;;;;;;;;;;;;5045907;28;1275;-77
2022/05/01 01:25:11;;;;;;;;;;;;;;;;;;5044535;28;1300;-78
2022/05/01 01:27:38;;;;;;;;;;;;;;;;;;5041156;28;1149;-78
2022/05/01 01:32:48;;;;;;;;;;;;;;;;;;5035971;28;1053;-77
2022/05/01 01:35:17;;;;;;;;;;;;;;;;;;5022113;28;1969;-78
2022/05/01 01:37:46;;;;;;;;;;;;;;;;;;5024902;28;1180;-78
2022/05/01 01:40:18;;;;;;;;;;;;;;;;;;5025439;28;1129;-77
2022/05/01 01:42:46;;;;;;;;;;;;;;;;;;5021827;28;1265;-77
2022/05/01 01:45:13;;;;;;;;;;;;;;;;;;5027700;28;1219;-77
2022/05/01 01:47:38;;;;;;;;;;;;;;;;;;5030225;28;1168;-78
2022/05/01 01:50:05;;;;;;;;;;;;;;;;;;5046529;28;1241;-78
2022/05/01 01:52:30;;;;;;;;;;;;;;;;;;5047538;28;1297;-78
2022/05/01 01:54:55;;;;;;;;;;;;;;;;;;5046081;28;1901;-78
2022/05/01 01:57:20;;;;;;;;;;;;;;;;;;5009023;28;1182;-77
2022/05/01 01:59:46;;;;;;;;;;;;;;;;;;5025385;28;1235;-78
2022/05/01 02:02:11;;;;;;;;;;;;;;;;;;5026961;28;1125;-77
2022/05/01 02:04:36;;;;;;;;;;;;;;;;;;5026558;28;1318;-77
2022/05/01 02:07:02;;;;;;;;;;;;;;;;;;5025704;28;1188;-77
2022/05/01 02:09:30;;;;;;;;;;;;;;;;;;5027710;28;1046;-77
2022/05/01 02:11:57;;;;;;;;;;;;;;;;;;5010009;28;1409;-78
2022/05/01 02:14:23;;;;;;;;;;;;;;;;;;5036787;28;1886;-77
2022/05/01 02:16:48;;;;;;;;;;;;;;;;;;5038377;28;1266;-77
2022/05/01 02:19:14;;;;;;;;;;;;;;;;;;5032491;28;1199;-77
2022/05/01 02:21:40;;;;;;;;;;;;;;;;;;5039949;28;1208;-77
2022/05/01 02:24:07;;;;;;;;;;;;;;;;;;5027252;28;1308;-77
2022/05/01 02:26:32;;;;;;;;;;;;;;;;;;5007962;28;1306;-77
2022/05/01 02:28:59;;;;;;;;;;;;;;;;;;5023684;28;1314;-77
2022/05/01 02:31:25;;;;;;;;;;;;;;;;;;5035063;28;1161;-77
2022/05/01 02:33:51;;;;;;;;;;;;;;;;;;5027059;28;1914;-77
2022/05/01 02:36:20;;;;;;;;;;;;;;;;;;5044204;28;1254;-77
2022/05/01 02:38:46;;;;;;;;;;;;;;;;;;5040641;28;1329;-77
2022/05/01 02:41:12;;;;;;;;;;;;;;;;;;5029467;28;1209;-77
2022/05/01 02:43:42;;;;;;;;;;;;;;;;;;5044569;28;1037;-77
2022/05/01 02:46:08;;;;;;;;;;;;;;;;;;5013188;28;1279;-77
2022/05/01 02:48:33;;;;;;;;;;;;;;;;;;5045957;28;1149;-77
2022/05/01 02:50:58;;;;;;;;;;;;;;;;;;5027918;28;1106;-76
2022/05/01 02:53:24;;;;;;;;;;;;;;;;;;5044795;28;1957;-75
2022/05/01 02:55:49;;;;;;;;;;;;;;;;;;5045929;28;1290;-77
2022/05/01 02:58:14;;;;;;;;;;;;;;;;;;5046299;28;1157;-77
2022/05/01 03:00:40;;;;;;;;;;;;;;;;;;5024549;28;1227;-77
2022/05/01 03:03:05;;;;;;;;;;;;;;;;;;5027182;28;1416;-77
2022/05/01 03:05:31;;;;;;;;;;;;;;;;;;5028895;28;1296;-76
2022/05/01 03:07:56;;;;;;;;;;;;;;;;;;5046375;28;1286;-76
2022/05/01 03:10:25;;;;;;;;;;;;;;;;;;5045888;28;1192;-76
2022/05/01 03:12:50;;;;;;;;;;;;;;;;;;5034472;28;1370;-76
2022/05/01 03:15:16;;;;;;;;;;;;;;;;;;5042923;28;1953;-77
2022/05/01 03:23:09;;;;;;;;;;;;;;;;;;5048152;28;1060;-77
2022/05/01 03:25:34;;;;;;;;;;;;;;;;;;5031792;28;1267;-77
2022/05/01 03:27:59;;;;;;;;;;;;;;;;;;5030365;28;1357;-77
2022/05/01 03:30:25;;;;;;;;;;;;;;;;;;5045820;28;1144;-77
2022/05/01 03:32:50;;;;;;;;;;;;;;;;;;5048138;28;1208;-77
2022/05/01 03:35:17;;;;;;;;;;;;;;;;;;5043657;28;1918;-77
2022/05/01 03:37:42;;;;;;;;;;;;;;;;;;5043864;28;1168;-77
2022/05/01 03:40:09;;;;;;;;;;;;;;;;;;5008582;28;1299;-78
2022/05/01 03:42:34;;;;;;;;;;;;;;;;;;5023311;28;1176;-78
2022/05/01 03:44:59;;;;;;;;;;;;;;;;;;5023614;28;1372;-78
2022/05/01 03:47:27;;;;;;;;;;;;;;;;;;5033040;28;1117;-78
2022/05/01 03:49:52;;;;;;;;;;;;;;;;;;5028070;28;1164;-77
2022/05/01 03:52:18;;;;;;;;;;;;;;;;;;5027669;28;1173;-78
2022/05/01 03:54:43;;;;;;;;;;;;;;;;;;5028139;28;1898;-77
2022/05/01 03:57:09;;;;;;;;;;;;;;;;;;5022521;28;1327;-77
2022/05/01 03:59:35;;;;;;;;;;;;;;;;;;5005745;28;1262;-77
2022/05/01 04:02:00;;;;;;;;;;;;;;;;;;5016230;28;1655;-76
2022/05/01 04:04:35;;;;;;;;;;;;;;;;;;5045004;28;1156;-77
2022/05/01 04:07:00;;;;;;;;;;;;;;;;;;5039337;28;1128;-78
2022/05/01 04:09:32;;;;;;;;;;;;;;;;;;5005051;28;1255;-76
2022/05/01 04:11:57;;;;;;;;;;;;;;;;;;5021510;28;1290;-76
2022/05/01 04:14:23;;;;;;;;;;;;;;;;;;5015388;28;1959;-77
2022/05/01 04:16:50;;;;;;;;;;;;;;;;;;5025714;28;1445;-76
2022/05/01 04:19:15;;;;;;;;;;;;;;;;;;5042774;28;1266;-77
2022/05/01 04:21:41;;;;;;;;;;;;;;;;;;5024619;28;1244;-77
2022/05/01 04:24:07;;;;;;;;;;;;;;;;;;5032359;28;1205;-77
2022/05/01 04:26:32;;;;;;;;;;;;;;;;;;5039115;28;1216;-77
2022/05/01 04:31:41;;;;;;;;;;;;;;;;;;5031551;28;1036;-77
2022/05/01 04:34:07;;;;;;;;;;;;;;;;;;5006649;28;1910;-76
2022/05/01 04:36:32;;;;;;;;;;;;;;;;;;5024780;28;1282;-76
2022/05/01 04:38:57;;;;;;;;;;;;;;;;;;5043630;28;1141;-77
2022/05/01 04:41:41;;;;;;;;;;;;;;;;;;5022156;28;1264;-76
2022/05/01 04:44:07;;;;;;;;;;;;;;;;;;5026324;28;1134;-77
2022/05/01 04:46:32;;;;;;;;;;;;;;;;;;5027959;28;1305;-76
2022/05/01 04:48:57;;;;;;;;;;;;;;;;;;5030068;28;1169;-77
2022/05/01 04:51:23;;;;;;;;;;;;;;;;;;5040903;28;1279;-77
2022/05/01 04:53:48;;;;;;;;;;;;;;;;;;5041693;28;1890;-77
2022/05/01 04:58:57;;;;;;;;;;;;;;;;;;5033601;28;1044;-77
2022/05/01 05:01:23;;;;;;;;;;;;;;;;;;5035899;28;1222;-77
2022/05/01 05:03:48;;;;;;;;;;;;;;;;;;5023517;28;1259;-76
2022/05/01 05:06:13;;;;;;;;;;;;;;;;;;5026369;28;1232;-76
2022/05/01 05:11:26;;;;;;;;;;;;;;;;;;5035999;28;994;-77
2022/05/01 05:13:52;;;;;;;;;;;;;;;;;;5041305;28;1885;-78
2022/05/01 05:16:18;;;;;;;;;;;;;;;;;;5019817;28;1537;-77
2022/05/01 05:18:43;;;;;;;;;;;;;;;;;;5012120;28;1301;-77
2022/05/01 05:21:08;;;;;;;;;;;;;;;;;;5042881;28;1238;-77
2022/05/01 05:23:37;;;;;;;;;;;;;;;;;;5046916;28;1305;-77
2022/05/01 05:26:02;;;;;;;;;;;;;;;;;;5048245;28;1391;-78
2022/05/01 05:28:28;;;;;;;;;;;;;;;;;;5045861;28;1117;-78
2022/05/01 05:30:53;;;;;;;;;;;;;;;;;;5028658;28;1158;-77
2022/05/01 05:33:18;;;;;;;;;;;;;;;;;;5049595;28;1968;-77
2022/05/01 05:35:44;;;;;;;;;;;;;;;;;;5044455;28;1026;-77
2022/05/01 05:38:09;;;;;;;;;;;;;;;;;;5047309;28;1218;-77
2022/05/01 05:40:38;;;;;;;;;;;;;;;;;;5029240;28;1254;-78
2022/05/01 05:43:04;;;;;;;;;;;;;;;;;;5027744;28;1216;-78
2022/05/01 05:45:29;;;;;;;;;;;;;;;;;;5044819;28;1121;-77
2022/05/01 05:47:54;;;;;;;;;;;;;;;;;;5028709;28;1279;-76
2022/05/01 05:50:20;;;;;;;;;;;;;;;;;;5009154;28;1249;-77
2022/05/01 05:52:45;;;;;;;;;;;;;;;;;;5020206;28;1489;-77
2022/05/01 05:55:11;;;;;;;;;;;;;;;;;;5046238;28;1933;-77
2022/05/01 05:57:39;;;;;;;;;;;;;;;;;;5028865;28;1231;-78
2022/05/01 06:00:05;;;;;;;;;;;;;;;;;;5030822;28;1204;-77
2022/05/01 06:02:30;;;;;;;;;;;;;;;;;;5027882;28;1256;-77
2022/05/01 06:04:57;;;;;;;;;;;;;;;;;;5023744;28;1137;-77
2022/05/01 06:07:23;;;;;;;;;;;;;;;;;;5047446;28;1232;-78
2022/05/01 06:09:48;;;;;;;;;;;;;;;;;;5026245;28;1317;-76
2022/05/01 06:12:13;;;;;;;;;;;;;;;;;;5026857;28;1317;-77
2022/05/01 06:14:39;;;;;;;;;;;;;;;;;;5035374;28;1894;-78
2022/05/01 06:17:08;;;;;;;;;;;;;;;;;;5050153;28;1261;-78
2022/05/01 06:19:33;;;;;;;;;;;;;;;;;;5030023;28;1258;-78
2022/05/01 06:21:58;;;;;;;;;;;;;;;;;;5039194;28;1151;-77
2022/05/01 06:24:23;;;;;;;;;;;;;;;;;;5029613;28;1305;-78
2022/05/01 06:26:52;;;;;;;;;;;;;;;;;;5043942;28;1129;-78
2022/05/01 06:29:17;;;;;;;;;;;;;;;;;;5025739;28;1187;-78
2022/05/01 06:31:43;;;;;;;;;;;;;;;;;;5037550;28;1323;-78
2022/05/01 06:34:10;;;;;;;;;;;;;;;;;;5029761;28;1898;-78
2022/05/01 06:36:35;;;;;;;;;;;;;;;;;;5043033;28;1257;-78
2022/05/01 06:39:01;;;;;;;;;;;;;;;;;;5027998;28;1383;-78
2022/05/01 06:41:26;;;;;;;;;;;;;;;;;;5045250;28;1184;-78
2022/05/01 06:43:51;;;;;;;;;;;;;;;;;;5037801;28;1220;-78
2022/05/01 06:46:18;;;;;;;;;;;;;;;;;;5026511;28;1257;-78
2022/05/01 06:48:47;;;;;;;;;;;;;;;;;;5008157;28;1255;-78
2022/05/01 06:51:18;;;;;;;;;;;;;;;;;;5027440;28;1299;-77
2022/05/01 06:53:47;;;;;;;;;;;;;;;;;;5008946;28;1894;-77
2022/05/01 06:56:12;;;;;;;;;;;;;;;;;;5036055;28;1073;-77
2022/05/01 06:58:42;;;;;;;;;;;;;;;;;;5016010;28;1316;-78
2022/05/01 07:01:07;;;;;;;;;;;;;;;;;;5045448;28;1267;-78
2022/05/01 07:03:33;;;;;;;;;;;;;;;;;;5039615;28;1415;-76
2022/05/01 07:06:00;;;;;;;;;;;;;;;;;;5038235;28;1054;-76
2022/05/01 07:08:25;;;;;;;;;;;;;;;;;;5043899;28;1419;-76
2022/05/01 07:10:51;;;;;;;;;;;;;;;;;;5026171;28;1196;-77
2022/05/01 07:13:16;;;;;;;;;;;;;;;;;;5028368;28;1220;-78
2022/05/01 07:15:42;;;;;;;;;;;;;;;;;;5025032;28;1891;-76
2022/05/01 07:18:07;;;;;;;;;;;;;;;;;;5024188;28;1252;-77
2022/05/01 07:20:35;;;;;;;;;;;;;;;;;;5028379;28;1157;-77
2022/05/01 07:23:01;;;;;;;;;;;;;;;;;;5045560;28;1238;-77
2022/05/01 07:25:27;;;;;;;;;;;;;;;;;;5034560;28;1228;-78
2022/05/01 07:27:52;;;;;;;;;;;;;;;;;;5020717;28;1271;-78
2022/05/01 07:30:17;;;;;;;;;;;;;;;;;;5038473;28;1232;-78
2022/05/01 07:32:42;;;;;;;;;;;;;;;;;;5042348;28;1110;-78
2022/05/01 07:35:08;;;;;;;;;;;;;;;;;;5026708;28;1983;-79
2022/05/01 07:37:33;;;;;;;;;;;;;;;;;;5038171;28;1181;-79
2022/05/01 07:39:59;;;;;;;;;;;;;;;;;;5041289;28;1273;-78
2022/05/01 07:42:25;;;;;;;;;;;;;;;;;;5013107;28;1181;-76
2022/05/01 07:44:51;;;;;;;;;;;;;;;;;;5032666;28;1180;-77
2022/05/01 07:47:16;;;;;;;;;;;;;;;;;;5043932;28;1290;-76
2022/05/01 07:49:56;;;;;;;;;;;;;;;;;;;;;
2022/05/01 07:52:22;;;;;;;;;;;;;;;;;;5047883;28;1151;-76
2022/05/01 07:54:53;;;;;;;;;;;;;;;;;;5007652;28;1959;-76
2022/05/01 07:57:20;;;;;;;;;;;;;;;;;;5031732;28;1279;-77
2022/05/01 07:59:55;;;;;;;;;;;;;;;;;;5027833;28;1202;-76
2022/05/01 08:02:20;;;;;;;;;;;;;;;;;;5044436;28;1180;-76
2022/05/01 08:04:47;;;;;;;;;;;;;;;;;;5023576;28;1186;-76
2022/05/01 08:07:13;;;;;;;;;;;;;;;;;;5039438;28;1318;-77
2022/05/01 08:09:38;;;;;;;;;;;;;;;;;;5026974;28;1200;-77
2022/05/01 08:12:03;;;;;;;;;;;;;;;;;;5022088;28;1298;-76
2022/05/01 08:14:29;;;;;;;;;;;;;;;;;;5035469;28;1894;-77
2022/05/01 08:16:54;;;;;;;;;;;;;;;;;;5030292;28;1404;-75
2022/05/01 08:22:07;;;;;;;;;;;;;;;;;;5041511;28;981;-76
2022/05/01 08:24:33;;;;;;;;;;;;;;;;;;5042139;28;1100;-77
2022/05/01 08:27:04;;;;;;;;;;;;;;;;;;5022657;28;1353;-76
2022/05/01 08:29:30;;;;;;;;;;;;;;;;;;5034386;28;1096;-76
2022/05/01 08:31:55;;;;;;;;;;;;;;;;;;5040953;28;1231;-78
2022/05/01 08:34:20;;;;;;;;;;;;;;;;;;5034415;28;1972;-76
2022/05/01 08:36:46;;;;;;;;;;;;;;;;;;5023521;28;1261;-76
2022/05/01 08:39:11;;;;;;;;;;;;;;;;;;5040521;28;1337;-76
2022/05/01 08:41:37;;;;;;;;;;;;;;;;;;5041992;28;1165;-76
2022/05/01 08:44:03;;;;;;;;;;;;;;;;;;5039791;28;1334;-75
2022/05/01 08:46:28;;;;;;;;;;;;;;;;;;5043678;28;1287;-75
2022/05/01 08:48:54;;;;;;;;;;;;;;;;;;5041899;28;1178;-76
2022/05/01 08:51:20;;;;;;;;;;;;;;;;;;5041179;28;1332;-76
2022/05/01 08:53:47;;;;;;;;;;;;;;;;;;5006887;28;1955;-77
2022/05/01 08:56:12;;;;;;;;;;;;;;;;;;5022836;28;1252;-76
2022/05/01 08:58:42;;;;;;;;;;;;;;;;;;5021683;28;1137;-77
2022/05/01 09:01:08;;;;;;;;;;;;;;;;;;5024513;28;1600;-75
2022/05/01 09:03:34;;;;;;;;;;;;;;;;;;5023540;28;1161;-76
2022/05/01 09:05:59;;;;;;;;;;;;;;;;;;5019822;28;1181;-76
2022/05/01 09:08:26;;;;;;;;;;;;;;;;;;5024599;28;1292;-76
2022/05/01 09:12:49;;;;;;;;;;;;;;;;;;5024266;28;1304;-77
2022/05/01 09:13:44;;;;;;;;;;;;;;;;;;5040873;28;1977;-77
2022/05/01 09:16:10;;;;;;;;;;;;;;;;;;5033025;28;1178;-76
2022/05/01 09:18:41;;;;;;;;;;;;;;;;;;5020102;28;1204;-76
2022/05/01 09:21:07;;;;;;;;;;;;;;;;;;5040154;28;1089;-77
2022/05/01 09:23:44;;;;;;;;;;;;;;;;;;5027142;28;1457;-76
2022/05/01 09:26:10;;;;;;;;;;;;;;;;;;5044326;28;1046;-77
2022/05/01 09:28:38;;;;;;;;;;;;;;;;;;5041341;28;1188;-76
2022/05/01 09:31:04;;;;;;;;;;;;;;;;;;5025610;28;1250;-76
2022/05/01 09:33:29;;;;;;;;;;;;;;;;;;5037096;28;1910;-77
2022/05/01 09:35:58;;;;;;;;;;;;;;;;;;5033485;28;992;-77
2022/05/01 09:38:27;;;;;;;;;;;;;;;;;;5022367;28;1164;-77
2022/05/01 09:40:58;;;;;;;;;;;;;;;;;;5042907;28;1202;-76
2022/05/01 09:43:41;;;;;;;;;;;;;;;;;;5021029;28;1188;-77
2022/05/01 09:46:14;;;;;;;;;;;;;;;;;;5027625;28;1352;-76
2022/05/01 09:48:40;;;;;;;;;;;;;;;;;;5021596;28;1171;-76
2022/05/01 09:51:16;;;;;;;;;;;;;;;;;;5012509;28;1146;-77
2022/05/01 09:53:44;;;;;;;;;;;;;;;;;;5044233;28;1948;-77
2022/05/01 09:56:09;;;;;;;;;;;;;;;;;;5041623;28;1057;-77
2022/05/01 09:58:38;;;;;;;;;;;;;;;;;;5025608;28;1153;-77
2022/05/01 10:01:11;;;;;;;;;;;;;;;;;;5022749;28;1246;-77
2022/05/01 10:03:39;;;;;;;;;;;;;;;;;;5028448;28;1185;-76
2022/05/01 10:06:06;;;;;;;;;;;;;;;;;;5023183;28;1234;-76
2022/05/01 10:08:31;;;;;;;;;;;;;;;;;;5026094;28;1184;-76
2022/05/01 10:11:01;;;;;;;;;;;;;;;;;;5033646;28;1168;-76
2022/05/01 10:13:27;;;;;;;;;;;;;;;;;;5043102;28;1040;-76
2022/05/01 10:15:53;;;;;;;;;;;;;;;;;;5023359;28;1886;-77
2022/05/01 10:18:19;;;;;;;;;;;;;;;;;;5042883;28;1168;-77
2022/05/01 10:20:44;;;;;;;;;;;;;;;;;;5041969;28;1133;-78
2022/05/01 10:23:10;;;;;;;;;;;;;;;;;;5031192;28;1029;-77
2022/05/01 10:25:37;;;;;;;;;;;;;;;;;;5027404;28;1282;-76
2022/05/01 10:28:10;;;;;;;;;;;;;;;;;;5034761;28;1153;-75
2022/05/01 10:33:27;;;;;;;;;;;;;;;;;;5031751;28;1029;-73
2022/05/01 10:36:05;;;;;;;;;;;;;;;;;;5023169;28;1914;-74
2022/05/01 10:38:30;;;;;;;;;;;;;;;;;;5024726;28;1327;-73
2022/05/01 10:41:07;;;;;;;;;;;;;;;;;;5025092;28;1387;-74
2022/05/01 10:43:36;;;;;;;;;;;;;;;;;;5035014;28;1219;-73
2022/05/01 10:46:21;;;;;;;;;;;;;;;;;;5037798;28;1269;-73
2022/05/01 10:48:47;;;;;;;;;;;;;;;;;;5045905;28;1192;-72
2022/05/01 10:51:30;;;;;;;;;;;;;;;;;;5040713;28;1089;-73
2022/05/01 10:54:10;;;;;;;;;;;;;;;;;;5030382;28;1898;-72
2022/05/01 10:56:36;;;;;;;;;;;;;;;;;;5024156;28;1211;-75
2022/05/01 10:59:20;;;;;;;;;;;;;;;;;;5038717;28;1037;-72
2022/05/01 11:01:52;;;;;;;;;;;;;;;;;;5040934;28;1384;-72
2022/05/01 11:04:21;;;;;;;;;;;;;;;;;;5022674;28;1267;-72
2022/05/01 11:06:48;;;;;;;;;;;;;;;;;;5023269;28;1181;-73
2022/05/01 11:09:14;;;;;;;;;;;;;;;;;;5038715;28;1203;-73
2022/05/01 11:11:39;;;;;;;;;;;;;;;;;;5042080;28;1232;-73
2022/05/01 11:14:05;;;;;;;;;;;;;;;;;;5021737;28;1943;-73
2022/05/01 11:16:51;;;;;;;;;;;;;;;;;;5042636;28;1514;-71
2022/05/01 11:19:16;;;;;;;;;;;;;;;;;;5043213;28;1152;-73
2022/05/01 11:21:47;;;;;;;;;;;;;;;;;;5042513;28;1215;-73
2022/05/01 11:24:15;;;;;;;;;;;;;;;;;;5043611;28;1183;-73
2022/05/01 11:27:00;;;;;;;;;;;;;;;;;;5042015;28;1355;-71
2022/05/01 11:29:25;;;;;;;;;;;;;;;;;;5040145;28;1883;-72
2022/05/01 11:31:52;;;;;;;;;;;;;;;;;;5043248;28;1493;-72
2022/05/01 11:34:17;;;;;;;;;;;;;;;;;;5045069;28;1966;-73
2022/05/01 11:36:53;;;;;;;;;;;;;;;;;;5041328;28;1275;-72
2022/05/01 11:39:19;;;;;;;;;;;;;;;;;;5043675;28;1077;-73
2022/05/01 11:41:56;;;;;;;;;;;;;;;;;;;;;
2022/05/01 11:44:23;;;;;;;;;;;;;;;;;;5041256;28;1025;-72
2022/05/01 11:46:49;;;;;;;;;;;;;;;;;;5046516;28;1184;-71
2022/05/01 11:49:14;;;;;;;;;;;;;;;;;;5044010;28;1208;-72
2022/05/01 11:51:39;;;;;;;;;;;;;;;;;;5043098;28;1193;-72
2022/05/01 11:54:05;;;;;;;;;;;;;;;;;;5044572;28;1969;-73
2022/05/01 12:04:45;;;;;;;;;;;;;;;;;;5045315;28;1090;-73
2022/05/01 12:07:12;;;;;;;;;;;;;;;;;;5042806;28;1409;-72
2022/05/01 12:09:39;;;;;;;;;;;;;;;;;;5045298;28;1196;-73
2022/05/01 12:12:05;;;;;;;;;;;;;;;;;;5023782;28;1322;-73
2022/05/01 12:14:30;;;;;;;;;;;;;;;;;;5041478;28;1947;-73
2022/05/01 12:16:55;;;;;;;;;;;;;;;;;;5043692;28;1390;-72
2022/05/01 12:19:33;;;;;;;;;;;;;;;;;;5042009;28;1231;-72
2022/05/01 12:21:58;;;;;;;;;;;;;;;;;;5040960;28;1216;-72
2022/05/01 12:24:25;;;;;;;;;;;;;;;;;;5041427;28;1150;-75
2022/05/01 12:26:52;;;;;;;;;;;;;;;;;;5038899;28;1112;-72
2022/05/01 12:29:17;;;;;;;;;;;;;;;;;;5020039;28;1410;-72
2022/05/01 12:32:01;;;;;;;;;;;;;;;;;;5025686;28;1209;-73
2022/05/01 12:34:28;;;;;;;;;;;;;;;;;;5021424;28;1922;-72
2022/05/01 12:36:54;;;;;;;;;;;;;;;;;;5025354;28;1315;-72
2022/05/01 12:39:22;;;;;;;;;;;;;;;;;;5042785;28;1379;-71
2022/05/01 12:45:07;;;;;;;;;;;;;;;;;;5025481;28;1101;-72
2022/05/01 12:47:33;;;;;;;;;;;;;;;;;;5041601;28;1285;-72
2022/05/01 12:49:59;;;;;;;;;;;;;;;;;;5028311;28;1211;-71
2022/05/01 12:52:31;;;;;;;;;;;;;;;;;;5021722;28;1341;-72
2022/05/01 12:55:17;;;;;;;;;;;;;;;;;;5023410;28;1903;-71
2022/05/01 12:57:54;;;;;;;;;;;;;;;;;;5020132;28;1255;-72
2022/05/01 13:00:35;;;;;;;;;;;;;;;;;;5017339;28;1200;-72
2022/05/01 13:03:16;;;;;;;;;;;;;;;;;;5025428;28;1137;-73
2022/05/01 13:05:43;;;;;;;;;;;;;;;;;;5020965;28;1331;-75
2022/05/01 13:08:18;;;;;;;;;;;;;;;;;;5024034;28;1133;-73
2022/05/01 13:11:04;;;;;;;;;;;;;;;;;;5023105;28;1074;-73
2022/05/01 13:13:29;;;;;;;;;;;;;;;;;;5034805;28;1374;-72
2022/05/01 13:15:54;;;;;;;;;;;;;;;;;;5021883;28;1929;-72
2022/05/01 13:18:20;;;;;;;;;;;;;;;;;;5033572;28;1184;-72
2022/05/01 13:20:45;;;;;;;;;;;;;;;;;;5002837;28;1161;-73
2022/05/01 13:23:14;;;;;;;;;;;;;;;;;;5022027;28;1153;-72
2022/05/01 13:25:40;;;;;;;;;;;;;;;;;;5021632;28;1133;-73
2022/05/01 13:28:05;;;;;;;;;;;;;;;;;;5019177;28;1535;-72
2022/05/01 13:30:31;;;;;;;;;;;;;;;;;;5020484;28;1210;-74
2022/05/01 13:32:56;;;;;;;;;;;;;;;;;;5024305;28;1161;-72
2022/05/01 13:35:21;;;;;;;;;;;;;;;;;;5035697;28;1961;-72
2022/05/01 13:37:46;;;;;;;;;;;;;;;;;;5030104;28;1211;-72
2022/05/01 13:45:41;;;;;;;;;;;;;;;;;;5032101;28;1009;-73
2022/05/01 13:48:07;;;;;;;;;;;;;;;;;;5034758;28;1200;-74
2022/05/01 13:50:32;;;;;;;;;;;;;;;;;;5005173;28;1196;-73
2022/05/01 13:52:57;;;;;;;;;;;;;;;;;;5026206;28;1080;-72
2022/05/01 13:55:23;;;;;;;;;;;;;;;;;;5024370;28;1894;-73
2022/05/01 13:57:48;;;;;;;;;;;;;;;;;;5035803;28;1267;-72
2022/05/01 14:00:17;;;;;;;;;;;;;;;;;;5042808;28;1275;-73
2022/05/01 14:02:43;;;;;;;;;;;;;;;;;;5031150;28;1168;-73
2022/05/01 14:05:08;;;;;;;;;;;;;;;;;;5028885;28;1389;-73
2022/05/01 14:07:34;;;;;;;;;;;;;;;;;;5042929;28;1075;-73
2022/05/01 14:09:59;;;;;;;;;;;;;;;;;;5047445;28;1025;-73
2022/05/01 14:12:24;;;;;;;;;;;;;;;;;;5024497;28;1209;-73
2022/05/01 14:14:50;;;;;;;;;;;;;;;;;;5026754;28;1926;-73
2022/05/01 14:17:19;;;;;;;;;;;;;;;;;;5044954;28;1362;-72
2022/05/01 14:19:47;;;;;;;;;;;;;;;;;;5044067;28;1213;-73
2022/05/01 14:22:16;;;;;;;;;;;;;;;;;;5036459;28;1380;-72
2022/05/01 14:24:43;;;;;;;;;;;;;;;;;;5025222;28;1248;-73
2022/05/01 14:27:09;;;;;;;;;;;;;;;;;;5025954;28;1212;-72
2022/05/01 14:29:34;;;;;;;;;;;;;;;;;;5031155;28;1215;-73
2022/05/01 14:32:01;;;;;;;;;;;;;;;;;;5044859;28;1499;-73
2022/05/01 14:34:32;;;;;;;;;;;;;;;;;;5034796;28;1993;-74
2022/05/01 14:36:58;;;;;;;;;;;;;;;;;;5043412;28;1161;-73
2022/05/01 14:39:25;;;;;;;;;;;;;;;;;;5046732;28;1386;-73
2022/05/01 14:41:51;;;;;;;;;;;;;;;;;;5043695;28;1542;-72
2022/05/01 14:44:21;;;;;;;;;;;;;;;;;;5043068;28;1201;-73
2022/05/01 14:46:55;;;;;;;;;;;;;;;;;;5044395;28;1074;-72
2022/05/01 14:49:38;;;;;;;;;;;;;;;;;;5046791;28;1053;-73
2022/05/01 14:52:11;;;;;;;;;;;;;;;;;;5042757;28;1168;-73
2022/05/01 14:54:37;;;;;;;;;;;;;;;;;;5043472;28;1894;-73
2022/05/01 14:57:10;;;;;;;;;;;;;;;;;;5043325;28;1253;-74
2022/05/01 15:07:55;;;;;;;;;;;;;;;;;;5040919;28;1076;-74
2022/05/01 15:10:23;;;;;;;;;;;;;;;;;;5021593;28;1065;-75
2022/05/01 15:12:49;;;;;;;;;;;;;;;;;;5020848;28;1213;-74
2022/05/01 15:15:14;;;;;;;;;;;;;;;;;;5018807;28;1981;-76
2022/05/01 15:17:41;;;;;;;;;;;;;;;;;;5028110;28;1241;-75
2022/05/01 15:20:28;;;;;;;;;;;;;;;;;;5040774;28;1113;-74
2022/05/01 15:23:14;;;;;;;;;;;;;;;;;;5037031;28;1194;-75
2022/05/01 15:25:43;;;;;;;;;;;;;;;;;;5036925;28;1344;-74
2022/05/01 15:28:12;;;;;;;;;;;;;;;;;;5039201;28;1332;-75
2022/05/01 15:30:39;;;;;;;;;;;;;;;;;;5038365;28;1186;-74
2022/05/01 15:33:41;;;;;;;;;;;;;;;;;;5039362;28;1398;-75
2022/05/01 15:36:14;;;;;;;;;;;;;;;;;;5016158;28;1973;-75
2022/05/01 15:38:58;;;;;;;;;;;;;;;;;;5018805;28;1255;-75
2022/05/01 15:41:33;;;;;;;;;;;;;;;;;;5020488;28;1223;-75
2022/05/01 15:44:00;;;;;;;;;;;;;;;;;;5019754;28;1446;-74
2022/05/01 15:46:29;;;;;;;;;;;;;;;;;;5018691;28;1451;-75
2022/05/01 15:54:30;;;;;;;;;;;;;;;;;;5041437;28;1894;-74
2022/05/01 15:56:57;;;;;;;;;;;;;;;;;;5037618;28;1674;-74
2022/05/01 15:59:27;;;;;;;;;;;;;;;;;;5008847;28;1182;-74
2022/05/01 16:01:53;;;;;;;;;;;;;;;;;;5015063;28;1338;-74
2022/05/01 16:04:22;;;;;;;;;;;;;;;;;;5039025;28;1484;-74
2022/05/01 16:06:49;;;;;;;;;;;;;;;;;;5044829;28;1212;-74
2022/05/01 16:09:16;;;;;;;;;;;;;;;;;;5026206;28;1377;-76
2022/05/01 16:11:47;;;;;;;;;;;;;;;;;;5012075;28;1165;-75
2022/05/01 16:14:16;;;;;;;;;;;;;;;;;;5029807;28;2252;-75
2022/05/01 16:16:55;;;;;;;;;;;;;;;;;;5037451;28;1267;-75
2022/05/01 16:19:29;;;;;;;;;;;;;;;;;;5019635;28;1134;-73
2022/05/01 16:22:10;;;;;;;;;;;;;;;;;;5013868;28;1141;-74
2022/05/01 16:24:35;;;;;;;;;;;;;;;;;;5020708;28;1048;-73
2022/05/01 16:27:03;;;;;;;;;;;;;;;;;;5018191;28;1216;-75
2022/05/01 16:29:44;;;;;;;;;;;;;;;;;;5022163;28;1397;-75
2022/05/01 16:32:28;;;;;;;;;;;;;;;;;;5039477;28;1196;-75
2022/05/01 16:35:01;;;;;;;;;;;;;;;;;;5033443;28;1926;-75
2022/05/01 16:37:30;;;;;;;;;;;;;;;;;;5039230;28;1507;-73
2022/05/01 16:39:56;;;;;;;;;;;;;;;;;;5038876;28;1287;-75
2022/05/01 16:42:22;;;;;;;;;;;;;;;;;;5037531;28;1426;-74
2022/05/01 16:44:48;;;;;;;;;;;;;;;;;;5019410;28;1357;-75
2022/05/01 16:47:14;;;;;;;;;;;;;;;;;;5020792;28;1491;-74
2022/05/01 16:49:41;;;;;;;;;;;;;;;;;;5039407;28;1236;-73
2022/05/01 16:52:07;;;;;;;;;;;;;;;;;;5037118;28;1144;-74
2022/05/01 16:54:36;;;;;;;;;;;;;;;;;;5038258;28;1889;-73
2022/05/01 16:57:02;;;;;;;;;;;;;;;;;;5037187;28;1097;-75
2022/05/01 16:59:28;;;;;;;;;;;;;;;;;;5014936;28;1352;-75
2022/05/01 17:01:55;;;;;;;;;;;;;;;;;;4999965;28;1355;-74
2022/05/01 17:04:25;;;;;;;;;;;;;;;;;;5020310;28;1370;-75
2022/05/01 17:06:59;;;;;;;;;;;;;;;;;;5030924;28;1366;-75
2022/05/01 17:09:28;;;;;;;;;;;;;;;;;;5024861;28;1062;-74
2022/05/01 17:11:59;;;;;;;;;;;;;;;;;;5029110;28;1453;-74
2022/05/01 17:14:36;;;;;;;;;;;;;;;;;;5018237;28;1977;-73
2022/05/01 17:17:10;;;;;;;;;;;;;;;;;;5024371;28;1346;-73
2022/05/01 17:19:49;;;;;;;;;;;;;;;;;;5023500;28;1311;-72
2022/05/01 17:22:31;;;;;;;;;;;;;;;;;;5020745;28;1239;-76
2022/05/01 17:25:15;;;;;;;;;;;;;;;;;;5041849;28;1287;-74
2022/05/01 17:27:51;;;;;;;;;;;;;;;;;;5041061;28;1190;-73
2022/05/01 17:30:18;;;;;;;;;;;;;;;;;;5031479;28;1406;-73
2022/05/01 17:32:51;;;;;;;;;;;;;;;;;;5023222;28;1160;-74
2022/05/01 17:35:17;;;;;;;;;;;;;;;;;;5029402;28;2329;-74
2022/05/01 17:37:43;;;;;;;;;;;;;;;;;;5034528;28;1168;-74
2022/05/01 17:40:13;;;;;;;;;;;;;;;;;;5035215;28;1207;-73
2022/05/01 17:42:39;;;;;;;;;;;;;;;;;;5036677;28;1177;-74
2022/05/01 17:45:06;;;;;;;;;;;;;;;;;;5025997;28;1323;-74
2022/05/01 17:47:34;;;;;;;;;;;;;;;;;;5021705;28;1086;-72
2022/05/01 17:50:01;;;;;;;;;;;;;;;;;;5043119;28;1157;-72
2022/05/01 17:52:30;;;;;;;;;;;;;;;;;;5043001;28;1259;-73
2022/05/01 17:54:56;;;;;;;;;;;;;;;;;;5033217;28;1971;-74
2022/05/01 17:57:21;;;;;;;;;;;;;;;;;;5023966;28;1141;-76
2022/05/01 17:59:47;;;;;;;;;;;;;;;;;;5018335;28;1505;-75
2022/05/01 18:02:35;;;;;;;;;;;;;;;;;;5025683;28;1361;-73
2022/05/01 18:10:51;;;;;;;;;;;;;;;;;;5041373;28;1026;-75
2022/05/01 18:13:22;;;;;;;;;;;;;;;;;;5041302;28;1166;-75
2022/05/01 18:15:51;;;;;;;;;;;;;;;;;;5031683;28;1878;-74